sensor_id;sensor_type;location;lat;lon;timestamp;P1;durP1;ratioP1;P2;durP2;ratioP2
7334;SDS011;3708;42.632;23.378;2023-02-15T00:01:04;40.70;;;25.40;;
7334;SDS011;3708;42.632;23.378;2023-02-15T00:03:32;37.20;;;24.23;;
7334;SDS011;3708;42.632;23.378;2023-02-15T00:06:00;37.63;;;23.07;;
7334;SDS011;3708;42.632;23.378;2023-02-15T00:08:27;40.37;;;25.87;;
7334;SDS011;3708;42.632;23.378;2023-02-15T00:11:02;35.63;;;21.97;;
7334;SDS011;3708;42.632;23.378;2023-02-15T00:13:30;39.30;;;25.33;;
7334;SDS011;3708;42.632;23.378;2023-02-15T00:16:00;44.03;;;25.60;;
7334;SDS011;3708;42.632;23.378;2023-02-15T00:18:28;46.43;;;26.47;;
7334;SDS011;3708;42.632;23.378;2023-02-15T00:20:55;40.27;;;25.57;;
7334;SDS011;3708;42.632;23.378;2023-02-15T00:23:23;37.07;;;23.47;;
7334;SDS011;3708;42.632;23.378;2023-02-15T00:25:52;47.27;;;24.10;;
7334;SDS011;3708;42.632;23.378;2023-02-15T00:28:19;41.67;;;24.33;;
7334;SDS011;3708;42.632;23.378;2023-02-15T00:30:46;41.67;;;26.07;;
7334;SDS011;3708;42.632;23.378;2023-02-15T00:33:13;38.20;;;24.13;;
7334;SDS011;3708;42.632;23.378;2023-02-15T00:35:40;39.97;;;24.47;;
7334;SDS011;3708;42.632;23.378;2023-02-15T00:38:07;39.57;;;25.57;;
7334;SDS011;3708;42.632;23.378;2023-02-15T00:40:35;36.47;;;23.20;;
7334;SDS011;3708;42.632;23.378;2023-02-15T00:43:02;37.57;;;23.80;;
7334;SDS011;3708;42.632;23.378;2023-02-15T00:45:29;36.73;;;23.97;;
7334;SDS011;3708;42.632;23.378;2023-02-15T00:47:56;39.47;;;25.10;;
7334;SDS011;3708;42.632;23.378;2023-02-15T00:50:23;43.10;;;25.67;;
7334;SDS011;3708;42.632;23.378;2023-02-15T00:52:49;42.57;;;26.60;;
7334;SDS011;3708;42.632;23.378;2023-02-15T00:55:17;36.70;;;22.30;;
7334;SDS011;3708;42.632;23.378;2023-02-15T00:57:49;38.37;;;22.83;;
7334;SDS011;3708;42.632;23.378;2023-02-15T01:00:18;34.10;;;22.77;;
7334;SDS011;3708;42.632;23.378;2023-02-15T01:02:45;36.60;;;23.97;;
7334;SDS011;3708;42.632;23.378;2023-02-15T01:05:12;40.23;;;23.97;;
7334;SDS011;3708;42.632;23.378;2023-02-15T01:07:39;34.67;;;21.30;;
7334;SDS011;3708;42.632;23.378;2023-02-15T01:10:06;33.93;;;20.67;;
7334;SDS011;3708;42.632;23.378;2023-02-15T01:12:34;38.40;;;23.90;;
7334;SDS011;3708;42.632;23.378;2023-02-15T01:15:03;41.50;;;26.67;;
7334;SDS011;3708;42.632;23.378;2023-02-15T01:17:30;37.03;;;23.37;;
7334;SDS011;3708;42.632;23.378;2023-02-15T01:19:58;42.20;;;24.70;;
7334;SDS011;3708;42.632;23.378;2023-02-15T01:22:25;36.83;;;22.90;;
7334;SDS011;3708;42.632;23.378;2023-02-15T01:24:52;37.00;;;24.27;;
7334;SDS011;3708;42.632;23.378;2023-02-15T01:27:19;40.97;;;22.13;;
7334;SDS011;3708;42.632;23.378;2023-02-15T01:29:46;32.93;;;21.33;;
7334;SDS011;3708;42.632;23.378;2023-02-15T01:32:14;38.20;;;24.63;;
7334;SDS011;3708;42.632;23.378;2023-02-15T01:34:41;41.77;;;25.30;;
7334;SDS011;3708;42.632;23.378;2023-02-15T01:37:08;40.83;;;24.77;;
7334;SDS011;3708;42.632;23.378;2023-02-15T01:39:35;35.73;;;22.10;;
7334;SDS011;3708;42.632;23.378;2023-02-15T01:42:02;39.10;;;24.73;;
7334;SDS011;3708;42.632;23.378;2023-02-15T01:44:49;37.50;;;24.03;;
7334;SDS011;3708;42.632;23.378;2023-02-15T01:47:19;38.07;;;24.23;;
7334;SDS011;3708;42.632;23.378;2023-02-15T01:49:49;40.13;;;25.00;;
7334;SDS011;3708;42.632;23.378;2023-02-15T01:52:25;36.00;;;23.50;;
7334;SDS011;3708;42.632;23.378;2023-02-15T01:54:52;37.77;;;24.90;;
7334;SDS011;3708;42.632;23.378;2023-02-15T01:57:19;34.80;;;22.90;;
7334;SDS011;3708;42.632;23.378;2023-02-15T01:59:51;41.80;;;24.53;;
7334;SDS011;3708;42.632;23.378;2023-02-15T02:02:22;39.87;;;24.93;;
7334;SDS011;3708;42.632;23.378;2023-02-15T02:04:51;37.30;;;23.53;;
7334;SDS011;3708;42.632;23.378;2023-02-15T02:07:21;38.33;;;23.33;;
7334;SDS011;3708;42.632;23.378;2023-02-15T02:09:52;36.37;;;22.87;;
7334;SDS011;3708;42.632;23.378;2023-02-15T02:12:19;33.97;;;22.57;;
7334;SDS011;3708;42.632;23.378;2023-02-15T02:14:49;40.93;;;26.47;;
7334;SDS011;3708;42.632;23.378;2023-02-15T02:17:18;40.93;;;24.37;;
7334;SDS011;3708;42.632;23.378;2023-02-15T02:20:04;38.43;;;23.93;;
7334;SDS011;3708;42.632;23.378;2023-02-15T02:25:56;39.10;;;21.70;;
7334;SDS011;3708;42.632;23.378;2023-02-15T02:28:50;34.73;;;21.73;;
7334;SDS011;3708;42.632;23.378;2023-02-15T02:31:43;36.40;;;23.47;;
7334;SDS011;3708;42.632;23.378;2023-02-15T02:34:28;39.60;;;23.33;;
7334;SDS011;3708;42.632;23.378;2023-02-15T02:37:14;33.57;;;21.93;;
7334;SDS011;3708;42.632;23.378;2023-02-15T02:39:49;36.80;;;23.80;;
7334;SDS011;3708;42.632;23.378;2023-02-15T02:42:24;35.77;;;23.67;;
7334;SDS011;3708;42.632;23.378;2023-02-15T02:44:59;31.27;;;19.97;;
7334;SDS011;3708;42.632;23.378;2023-02-15T02:47:30;40.73;;;23.30;;
7334;SDS011;3708;42.632;23.378;2023-02-15T02:50:06;37.80;;;22.90;;
7334;SDS011;3708;42.632;23.378;2023-02-15T02:52:35;36.17;;;24.27;;
7334;SDS011;3708;42.632;23.378;2023-02-15T02:55:05;38.17;;;22.00;;
7334;SDS011;3708;42.632;23.378;2023-02-15T02:57:35;34.17;;;21.83;;
7334;SDS011;3708;42.632;23.378;2023-02-15T03:00:07;37.50;;;23.17;;
7334;SDS011;3708;42.632;23.378;2023-02-15T03:02:37;34.00;;;21.70;;
7334;SDS011;3708;42.632;23.378;2023-02-15T03:05:08;34.23;;;20.47;;
7334;SDS011;3708;42.632;23.378;2023-02-15T03:07:41;35.17;;;22.40;;
7334;SDS011;3708;42.632;23.378;2023-02-15T03:10:09;36.63;;;22.30;;
7334;SDS011;3708;42.632;23.378;2023-02-15T03:12:37;35.07;;;22.30;;
7334;SDS011;3708;42.632;23.378;2023-02-15T03:15:06;33.43;;;21.87;;
7334;SDS011;3708;42.632;23.378;2023-02-15T03:17:39;34.63;;;22.63;;
7334;SDS011;3708;42.632;23.378;2023-02-15T03:20:12;32.73;;;21.33;;
7334;SDS011;3708;42.632;23.378;2023-02-15T03:22:46;33.27;;;20.53;;
7334;SDS011;3708;42.632;23.378;2023-02-15T03:25:17;33.67;;;21.50;;
7334;SDS011;3708;42.632;23.378;2023-02-15T03:27:48;33.03;;;19.03;;
7334;SDS011;3708;42.632;23.378;2023-02-15T03:30:19;32.37;;;20.40;;
7334;SDS011;3708;42.632;23.378;2023-02-15T03:32:48;27.60;;;19.80;;
7334;SDS011;3708;42.632;23.378;2023-02-15T03:35:19;29.43;;;20.23;;
7334;SDS011;3708;42.632;23.378;2023-02-15T03:37:50;36.47;;;21.17;;
7334;SDS011;3708;42.632;23.378;2023-02-15T03:40:22;32.90;;;21.10;;
7334;SDS011;3708;42.632;23.378;2023-02-15T03:43:11;31.07;;;18.57;;
7334;SDS011;3708;42.632;23.378;2023-02-15T03:45:44;34.13;;;21.97;;
7334;SDS011;3708;42.632;23.378;2023-02-15T03:48:20;34.50;;;19.77;;
7334;SDS011;3708;42.632;23.378;2023-02-15T03:50:52;27.20;;;18.33;;
7334;SDS011;3708;42.632;23.378;2023-02-15T03:53:38;37.60;;;22.90;;
7334;SDS011;3708;42.632;23.378;2023-02-15T03:56:06;30.43;;;21.47;;
7334;SDS011;3708;42.632;23.378;2023-02-15T03:58:33;32.20;;;20.03;;
7334;SDS011;3708;42.632;23.378;2023-02-15T04:01:18;33.13;;;20.60;;
7334;SDS011;3708;42.632;23.378;2023-02-15T04:04:25;31.37;;;20.23;;
7334;SDS011;3708;42.632;23.378;2023-02-15T04:06:58;31.57;;;20.30;;
7334;SDS011;3708;42.632;23.378;2023-02-15T04:09:25;25.03;;;17.00;;
7334;SDS011;3708;42.632;23.378;2023-02-15T04:12:09;33.27;;;21.07;;
7334;SDS011;3708;42.632;23.378;2023-02-15T04:14:36;33.33;;;20.47;;
7334;SDS011;3708;42.632;23.378;2023-02-15T04:17:22;29.37;;;18.87;;
7334;SDS011;3708;42.632;23.378;2023-02-15T04:19:49;32.07;;;20.73;;
7334;SDS011;3708;42.632;23.378;2023-02-15T04:22:34;30.63;;;19.93;;
7334;SDS011;3708;42.632;23.378;2023-02-15T04:25:19;28.80;;;18.97;;
7334;SDS011;3708;42.632;23.378;2023-02-15T04:27:47;32.33;;;20.80;;
7334;SDS011;3708;42.632;23.378;2023-02-15T04:30:15;33.20;;;20.80;;
7334;SDS011;3708;42.632;23.378;2023-02-15T04:32:44;32.47;;;19.53;;
7334;SDS011;3708;42.632;23.378;2023-02-15T04:35:11;31.43;;;18.37;;
7334;SDS011;3708;42.632;23.378;2023-02-15T04:37:40;32.43;;;18.70;;
7334;SDS011;3708;42.632;23.378;2023-02-15T04:40:08;32.33;;;20.07;;
7334;SDS011;3708;42.632;23.378;2023-02-15T04:42:37;26.53;;;18.40;;
7334;SDS011;3708;42.632;23.378;2023-02-15T04:45:05;36.80;;;22.57;;
7334;SDS011;3708;42.632;23.378;2023-02-15T04:47:32;33.00;;;20.00;;
7334;SDS011;3708;42.632;23.378;2023-02-15T04:49:59;33.93;;;20.57;;
7334;SDS011;3708;42.632;23.378;2023-02-15T04:52:26;30.10;;;19.07;;
7334;SDS011;3708;42.632;23.378;2023-02-15T04:54:54;35.30;;;21.87;;
7334;SDS011;3708;42.632;23.378;2023-02-15T04:57:21;37.50;;;22.03;;
7334;SDS011;3708;42.632;23.378;2023-02-15T04:59:48;33.80;;;20.70;;
7334;SDS011;3708;42.632;23.378;2023-02-15T05:02:15;33.27;;;20.13;;
7334;SDS011;3708;42.632;23.378;2023-02-15T05:04:41;31.70;;;20.87;;
7334;SDS011;3708;42.632;23.378;2023-02-15T05:07:08;33.40;;;21.63;;
7334;SDS011;3708;42.632;23.378;2023-02-15T05:09:35;31.40;;;19.97;;
7334;SDS011;3708;42.632;23.378;2023-02-15T05:12:04;31.67;;;21.40;;
7334;SDS011;3708;42.632;23.378;2023-02-15T05:14:31;35.17;;;21.57;;
7334;SDS011;3708;42.632;23.378;2023-02-15T05:16:58;35.87;;;22.50;;
7334;SDS011;3708;42.632;23.378;2023-02-15T05:19:26;34.87;;;22.00;;
7334;SDS011;3708;42.632;23.378;2023-02-15T05:21:53;29.97;;;21.63;;
7334;SDS011;3708;42.632;23.378;2023-02-15T05:24:20;32.63;;;17.87;;
7334;SDS011;3708;42.632;23.378;2023-02-15T05:27:07;32.30;;;18.53;;
7334;SDS011;3708;42.632;23.378;2023-02-15T05:29:54;32.67;;;21.23;;
7334;SDS011;3708;42.632;23.378;2023-02-15T05:32:20;33.60;;;20.37;;
7334;SDS011;3708;42.632;23.378;2023-02-15T05:34:47;30.93;;;17.60;;
7334;SDS011;3708;42.632;23.378;2023-02-15T05:37:14;34.97;;;20.70;;
7334;SDS011;3708;42.632;23.378;2023-02-15T05:39:41;36.00;;;21.70;;
7334;SDS011;3708;42.632;23.378;2023-02-15T05:42:09;32.20;;;18.30;;
7334;SDS011;3708;42.632;23.378;2023-02-15T05:44:36;36.20;;;21.07;;
7334;SDS011;3708;42.632;23.378;2023-02-15T05:47:02;32.30;;;21.60;;
7334;SDS011;3708;42.632;23.378;2023-02-15T05:49:32;37.63;;;23.00;;
7334;SDS011;3708;42.632;23.378;2023-02-15T05:52:01;31.60;;;20.47;;
7334;SDS011;3708;42.632;23.378;2023-02-15T05:54:31;34.93;;;22.70;;
7334;SDS011;3708;42.632;23.378;2023-02-15T05:57:00;37.50;;;21.03;;
7334;SDS011;3708;42.632;23.378;2023-02-15T05:59:30;35.33;;;21.50;;
7334;SDS011;3708;42.632;23.378;2023-02-15T06:02:09;34.40;;;21.60;;
7334;SDS011;3708;42.632;23.378;2023-02-15T06:04:38;35.40;;;20.20;;
7334;SDS011;3708;42.632;23.378;2023-02-15T06:07:10;33.00;;;21.23;;
7334;SDS011;3708;42.632;23.378;2023-02-15T06:09:46;31.50;;;19.30;;
7334;SDS011;3708;42.632;23.378;2023-02-15T06:12:15;34.57;;;20.67;;
7334;SDS011;3708;42.632;23.378;2023-02-15T06:14:48;33.27;;;19.43;;
7334;SDS011;3708;42.632;23.378;2023-02-15T06:17:16;29.73;;;19.70;;
7334;SDS011;3708;42.632;23.378;2023-02-15T06:19:43;31.93;;;19.83;;
7334;SDS011;3708;42.632;23.378;2023-02-15T06:22:10;30.37;;;20.10;;
7334;SDS011;3708;42.632;23.378;2023-02-15T06:24:39;30.20;;;19.37;;
7334;SDS011;3708;42.632;23.378;2023-02-15T06:27:07;30.43;;;18.97;;
7334;SDS011;3708;42.632;23.378;2023-02-15T06:29:35;31.80;;;19.33;;
7334;SDS011;3708;42.632;23.378;2023-02-15T06:32:11;30.20;;;18.10;;
7334;SDS011;3708;42.632;23.378;2023-02-15T06:34:43;32.03;;;19.20;;
7334;SDS011;3708;42.632;23.378;2023-02-15T06:37:10;30.70;;;20.00;;
7334;SDS011;3708;42.632;23.378;2023-02-15T06:39:37;40.00;;;21.50;;
7334;SDS011;3708;42.632;23.378;2023-02-15T06:42:05;25.53;;;16.60;;
7334;SDS011;3708;42.632;23.378;2023-02-15T06:44:32;30.57;;;20.80;;
7334;SDS011;3708;42.632;23.378;2023-02-15T06:46:59;32.50;;;17.63;;
7334;SDS011;3708;42.632;23.378;2023-02-15T06:49:27;28.17;;;17.93;;
7334;SDS011;3708;42.632;23.378;2023-02-15T06:51:54;29.97;;;18.67;;
7334;SDS011;3708;42.632;23.378;2023-02-15T06:54:21;31.93;;;19.30;;
7334;SDS011;3708;42.632;23.378;2023-02-15T06:56:48;27.73;;;18.40;;
7334;SDS011;3708;42.632;23.378;2023-02-15T06:59:15;28.07;;;17.47;;
7334;SDS011;3708;42.632;23.378;2023-02-15T07:01:42;28.53;;;18.67;;
7334;SDS011;3708;42.632;23.378;2023-02-15T07:04:09;28.13;;;17.40;;
7334;SDS011;3708;42.632;23.378;2023-02-15T07:06:37;31.40;;;18.23;;
7334;SDS011;3708;42.632;23.378;2023-02-15T07:09:08;22.03;;;15.73;;
7334;SDS011;3708;42.632;23.378;2023-02-15T07:11:42;25.17;;;16.20;;
7334;SDS011;3708;42.632;23.378;2023-02-15T07:14:26;26.20;;;16.93;;
7334;SDS011;3708;42.632;23.378;2023-02-15T07:16:53;25.37;;;16.73;;
7334;SDS011;3708;42.632;23.378;2023-02-15T07:19:20;21.83;;;13.17;;
7334;SDS011;3708;42.632;23.378;2023-02-15T07:21:54;23.60;;;12.27;;
7334;SDS011;3708;42.632;23.378;2023-02-15T07:24:21;26.07;;;16.37;;
7334;SDS011;3708;42.632;23.378;2023-02-15T07:26:49;29.87;;;16.27;;
7334;SDS011;3708;42.632;23.378;2023-02-15T07:29:16;28.70;;;17.67;;
7334;SDS011;3708;42.632;23.378;2023-02-15T07:31:55;25.57;;;13.87;;
7334;SDS011;3708;42.632;23.378;2023-02-15T07:34:25;25.00;;;17.33;;
7334;SDS011;3708;42.632;23.378;2023-02-15T07:36:52;23.37;;;15.00;;
7334;SDS011;3708;42.632;23.378;2023-02-15T07:39:22;23.83;;;14.37;;
7334;SDS011;3708;42.632;23.378;2023-02-15T07:41:49;23.10;;;14.33;;
7334;SDS011;3708;42.632;23.378;2023-02-15T07:44:16;25.23;;;15.37;;
7334;SDS011;3708;42.632;23.378;2023-02-15T07:46:43;29.03;;;16.47;;
7334;SDS011;3708;42.632;23.378;2023-02-15T07:49:10;23.47;;;15.10;;
7334;SDS011;3708;42.632;23.378;2023-02-15T07:51:37;20.77;;;14.43;;
7334;SDS011;3708;42.632;23.378;2023-02-15T07:54:06;25.83;;;16.03;;
7334;SDS011;3708;42.632;23.378;2023-02-15T07:56:34;21.13;;;13.63;;
7334;SDS011;3708;42.632;23.378;2023-02-15T07:59:01;22.70;;;15.67;;
7334;SDS011;3708;42.632;23.378;2023-02-15T08:01:30;20.33;;;14.23;;
7334;SDS011;3708;42.632;23.378;2023-02-15T08:03:58;23.13;;;14.30;;
7334;SDS011;3708;42.632;23.378;2023-02-15T08:06:28;20.40;;;11.93;;
7334;SDS011;3708;42.632;23.378;2023-02-15T08:08:57;22.53;;;12.97;;
7334;SDS011;3708;42.632;23.378;2023-02-15T08:11:25;22.97;;;15.43;;
7334;SDS011;3708;42.632;23.378;2023-02-15T08:14:00;24.27;;;14.40;;
7334;SDS011;3708;42.632;23.378;2023-02-15T08:16:30;24.73;;;15.80;;
7334;SDS011;3708;42.632;23.378;2023-02-15T08:18:59;26.00;;;16.40;;
7334;SDS011;3708;42.632;23.378;2023-02-15T08:21:29;24.93;;;15.33;;
7334;SDS011;3708;42.632;23.378;2023-02-15T08:23:57;24.50;;;15.30;;
7334;SDS011;3708;42.632;23.378;2023-02-15T08:26:24;23.73;;;15.13;;
7334;SDS011;3708;42.632;23.378;2023-02-15T08:28:52;25.57;;;15.67;;
7334;SDS011;3708;42.632;23.378;2023-02-15T08:31:21;21.77;;;13.70;;
7334;SDS011;3708;42.632;23.378;2023-02-15T08:33:48;19.63;;;13.87;;
7334;SDS011;3708;42.632;23.378;2023-02-15T08:36:17;21.60;;;14.37;;
7334;SDS011;3708;42.632;23.378;2023-02-15T08:38:46;24.10;;;15.07;;
7334;SDS011;3708;42.632;23.378;2023-02-15T08:41:14;22.53;;;15.10;;
7334;SDS011;3708;42.632;23.378;2023-02-15T08:43:42;24.80;;;15.33;;
7334;SDS011;3708;42.632;23.378;2023-02-15T08:46:10;23.23;;;16.23;;
7334;SDS011;3708;42.632;23.378;2023-02-15T08:48:39;19.77;;;12.47;;
7334;SDS011;3708;42.632;23.378;2023-02-15T08:51:07;24.37;;;15.13;;
7334;SDS011;3708;42.632;23.378;2023-02-15T08:53:37;20.23;;;13.63;;
7334;SDS011;3708;42.632;23.378;2023-02-15T08:56:05;21.03;;;14.10;;
7334;SDS011;3708;42.632;23.378;2023-02-15T08:58:32;21.93;;;13.93;;
7334;SDS011;3708;42.632;23.378;2023-02-15T09:00:59;23.70;;;14.87;;
7334;SDS011;3708;42.632;23.378;2023-02-15T09:03:28;19.63;;;13.67;;
7334;SDS011;3708;42.632;23.378;2023-02-15T09:06:00;22.80;;;14.77;;
7334;SDS011;3708;42.632;23.378;2023-02-15T09:08:27;22.07;;;13.87;;
7334;SDS011;3708;42.632;23.378;2023-02-15T09:11:03;22.13;;;11.27;;
7334;SDS011;3708;42.632;23.378;2023-02-15T09:13:32;18.53;;;12.57;;
7334;SDS011;3708;42.632;23.378;2023-02-15T09:15:59;19.63;;;12.30;;
7334;SDS011;3708;42.632;23.378;2023-02-15T09:18:27;18.10;;;12.67;;
7334;SDS011;3708;42.632;23.378;2023-02-15T09:20:55;18.67;;;12.20;;
7334;SDS011;3708;42.632;23.378;2023-02-15T09:23:23;21.63;;;13.53;;
7334;SDS011;3708;42.632;23.378;2023-02-15T09:25:50;20.90;;;13.70;;
7334;SDS011;3708;42.632;23.378;2023-02-15T09:28:17;21.63;;;13.67;;
7334;SDS011;3708;42.632;23.378;2023-02-15T09:30:44;19.97;;;12.73;;
7334;SDS011;3708;42.632;23.378;2023-02-15T09:33:11;19.43;;;13.10;;
7334;SDS011;3708;42.632;23.378;2023-02-15T09:35:37;18.73;;;11.87;;
7334;SDS011;3708;42.632;23.378;2023-02-15T09:38:05;18.90;;;13.87;;
7334;SDS011;3708;42.632;23.378;2023-02-15T09:40:34;23.50;;;13.73;;
7334;SDS011;3708;42.632;23.378;2023-02-15T09:43:22;20.57;;;14.27;;
7334;SDS011;3708;42.632;23.378;2023-02-15T09:46:02;17.60;;;11.07;;
7334;SDS011;3708;42.632;23.378;2023-02-15T09:48:39;19.93;;;13.70;;
7334;SDS011;3708;42.632;23.378;2023-02-15T09:54:15;20.93;;;13.20;;
7334;SDS011;3708;42.632;23.378;2023-02-15T09:56:58;22.47;;;14.20;;
7334;SDS011;3708;42.632;23.378;2023-02-15T09:59:35;21.43;;;15.03;;
7334;SDS011;3708;42.632;23.378;2023-02-15T10:02:17;22.73;;;15.43;;
7334;SDS011;3708;42.632;23.378;2023-02-15T10:04:57;21.17;;;15.53;;
7334;SDS011;3708;42.632;23.378;2023-02-15T10:07:38;22.40;;;15.00;;
7334;SDS011;3708;42.632;23.378;2023-02-15T10:10:30;23.10;;;15.50;;
7334;SDS011;3708;42.632;23.378;2023-02-15T10:13:12;22.10;;;15.03;;
7334;SDS011;3708;42.632;23.378;2023-02-15T10:16:01;26.27;;;15.73;;
7334;SDS011;3708;42.632;23.378;2023-02-15T10:18:51;22.57;;;15.00;;
7334;SDS011;3708;42.632;23.378;2023-02-15T10:21:33;21.07;;;14.00;;
7334;SDS011;3708;42.632;23.378;2023-02-15T10:24:23;21.57;;;14.93;;
7334;SDS011;3708;42.632;23.378;2023-02-15T10:27:06;24.67;;;14.50;;
7334;SDS011;3708;42.632;23.378;2023-02-15T10:29:41;24.33;;;15.27;;
7334;SDS011;3708;42.632;23.378;2023-02-15T10:32:18;25.23;;;16.43;;
7334;SDS011;3708;42.632;23.378;2023-02-15T10:34:50;26.23;;;15.40;;
7334;SDS011;3708;42.632;23.378;2023-02-15T10:40:11;21.17;;;13.93;;
7334;SDS011;3708;42.632;23.378;2023-02-15T10:42:48;20.63;;;13.57;;
7334;SDS011;3708;42.632;23.378;2023-02-15T10:45:31;22.53;;;15.80;;
7334;SDS011;3708;42.632;23.378;2023-02-15T10:51:10;19.87;;;13.07;;
7334;SDS011;3708;42.632;23.378;2023-02-15T10:53:49;19.83;;;13.47;;
7334;SDS011;3708;42.632;23.378;2023-02-15T10:56:30;19.27;;;12.80;;
7334;SDS011;3708;42.632;23.378;2023-02-15T10:59:06;20.60;;;13.40;;
7334;SDS011;3708;42.632;23.378;2023-02-15T11:01:49;20.90;;;13.47;;
7334;SDS011;3708;42.632;23.378;2023-02-15T11:07:23;16.13;;;10.33;;
7334;SDS011;3708;42.632;23.378;2023-02-15T11:09:53;20.40;;;14.30;;
7334;SDS011;3708;42.632;23.378;2023-02-15T11:12:26;21.37;;;14.50;;
7334;SDS011;3708;42.632;23.378;2023-02-15T11:14:56;23.53;;;15.80;;
7334;SDS011;3708;42.632;23.378;2023-02-15T11:17:30;24.57;;;16.53;;
7334;SDS011;3708;42.632;23.378;2023-02-15T11:20:04;23.73;;;16.27;;
7334;SDS011;3708;42.632;23.378;2023-02-15T11:22:41;22.83;;;15.40;;
7334;SDS011;3708;42.632;23.378;2023-02-15T11:25:14;22.80;;;15.13;;
7334;SDS011;3708;42.632;23.378;2023-02-15T11:27:44;22.97;;;14.43;;
7334;SDS011;3708;42.632;23.378;2023-02-15T11:30:15;23.87;;;15.77;;
7334;SDS011;3708;42.632;23.378;2023-02-15T11:32:47;25.77;;;16.87;;
7334;SDS011;3708;42.632;23.378;2023-02-15T11:35:20;24.03;;;14.53;;
7334;SDS011;3708;42.632;23.378;2023-02-15T11:37:54;28.87;;;16.30;;
7334;SDS011;3708;42.632;23.378;2023-02-15T11:40:28;23.70;;;15.07;;
7334;SDS011;3708;42.632;23.378;2023-02-15T11:42:59;25.43;;;14.97;;
7334;SDS011;3708;42.632;23.378;2023-02-15T11:45:31;22.13;;;14.90;;
7334;SDS011;3708;42.632;23.378;2023-02-15T11:48:00;20.47;;;13.40;;
7334;SDS011;3708;42.632;23.378;2023-02-15T11:50:34;24.93;;;17.00;;
7334;SDS011;3708;42.632;23.378;2023-02-15T11:53:03;24.27;;;16.03;;
7334;SDS011;3708;42.632;23.378;2023-02-15T11:55:35;29.90;;;15.07;;
7334;SDS011;3708;42.632;23.378;2023-02-15T11:58:03;22.77;;;16.87;;
7334;SDS011;3708;42.632;23.378;2023-02-15T12:00:36;21.47;;;15.43;;
7334;SDS011;3708;42.632;23.378;2023-02-15T12:03:09;24.03;;;16.13;;
7334;SDS011;3708;42.632;23.378;2023-02-15T12:05:41;22.70;;;15.50;;
7334;SDS011;3708;42.632;23.378;2023-02-15T12:08:13;21.23;;;15.30;;
7334;SDS011;3708;42.632;23.378;2023-02-15T12:10:46;19.57;;;12.87;;
7334;SDS011;3708;42.632;23.378;2023-02-15T12:13:24;25.67;;;14.87;;
7334;SDS011;3708;42.632;23.378;2023-02-15T12:15:55;19.13;;;13.40;;
7334;SDS011;3708;42.632;23.378;2023-02-15T12:18:31;21.67;;;15.00;;
7334;SDS011;3708;42.632;23.378;2023-02-15T12:21:02;21.00;;;14.30;;
7334;SDS011;3708;42.632;23.378;2023-02-15T12:23:32;24.97;;;15.27;;
7334;SDS011;3708;42.632;23.378;2023-02-15T12:26:00;21.57;;;15.43;;
7334;SDS011;3708;42.632;23.378;2023-02-15T12:28:30;27.07;;;16.77;;
7334;SDS011;3708;42.632;23.378;2023-02-15T12:30:59;27.50;;;18.60;;
7334;SDS011;3708;42.632;23.378;2023-02-15T12:33:30;26.77;;;17.37;;
7334;SDS011;3708;42.632;23.378;2023-02-15T12:36:01;25.37;;;16.80;;
7334;SDS011;3708;42.632;23.378;2023-02-15T12:38:37;23.27;;;15.90;;
7334;SDS011;3708;42.632;23.378;2023-02-15T12:41:10;25.03;;;17.83;;
7334;SDS011;3708;42.632;23.378;2023-02-15T12:43:53;30.70;;;17.73;;
7334;SDS011;3708;42.632;23.378;2023-02-15T12:46:31;27.90;;;17.10;;
7334;SDS011;3708;42.632;23.378;2023-02-15T12:49:06;24.30;;;17.50;;
7334;SDS011;3708;42.632;23.378;2023-02-15T12:51:47;28.70;;;18.60;;
7334;SDS011;3708;42.632;23.378;2023-02-15T12:54:16;22.03;;;15.10;;
7334;SDS011;3708;42.632;23.378;2023-02-15T12:56:54;25.00;;;17.03;;
7334;SDS011;3708;42.632;23.378;2023-02-15T12:59:22;24.03;;;16.53;;
7334;SDS011;3708;42.632;23.378;2023-02-15T13:01:50;27.33;;;17.83;;
7334;SDS011;3708;42.632;23.378;2023-02-15T13:04:22;28.07;;;17.47;;
7334;SDS011;3708;42.632;23.378;2023-02-15T13:06:52;23.77;;;16.83;;
7334;SDS011;3708;42.632;23.378;2023-02-15T13:09:24;24.87;;;16.50;;
7334;SDS011;3708;42.632;23.378;2023-02-15T13:12:08;22.97;;;16.23;;
7334;SDS011;3708;42.632;23.378;2023-02-15T13:14:42;25.93;;;17.27;;
7334;SDS011;3708;42.632;23.378;2023-02-15T13:17:11;21.73;;;15.43;;
7334;SDS011;3708;42.632;23.378;2023-02-15T13:19:42;23.97;;;17.23;;
7334;SDS011;3708;42.632;23.378;2023-02-15T13:22:13;24.33;;;16.67;;
7334;SDS011;3708;42.632;23.378;2023-02-15T13:24:42;24.83;;;15.83;;
7334;SDS011;3708;42.632;23.378;2023-02-15T13:27:14;23.80;;;16.20;;
7334;SDS011;3708;42.632;23.378;2023-02-15T13:29:43;24.53;;;14.83;;
7334;SDS011;3708;42.632;23.378;2023-02-15T13:32:15;22.17;;;15.53;;
7334;SDS011;3708;42.632;23.378;2023-02-15T13:34:53;21.37;;;14.73;;
7334;SDS011;3708;42.632;23.378;2023-02-15T13:37:26;24.67;;;15.27;;
7334;SDS011;3708;42.632;23.378;2023-02-15T13:40:04;22.47;;;15.30;;
7334;SDS011;3708;42.632;23.378;2023-02-15T13:42:35;25.50;;;15.97;;
7334;SDS011;3708;42.632;23.378;2023-02-15T13:45:09;21.00;;;14.77;;
7334;SDS011;3708;42.632;23.378;2023-02-15T13:47:49;24.43;;;16.30;;
7334;SDS011;3708;42.632;23.378;2023-02-15T13:50:31;25.97;;;16.43;;
7334;SDS011;3708;42.632;23.378;2023-02-15T13:53:18;25.23;;;16.57;;
7334;SDS011;3708;42.632;23.378;2023-02-15T13:55:56;24.73;;;16.80;;
7334;SDS011;3708;42.632;23.378;2023-02-15T13:58:33;25.80;;;16.77;;
7334;SDS011;3708;42.632;23.378;2023-02-15T14:01:13;24.67;;;17.00;;
7334;SDS011;3708;42.632;23.378;2023-02-15T14:07:10;26.87;;;16.60;;
7334;SDS011;3708;42.632;23.378;2023-02-15T14:09:53;28.93;;;17.50;;
7334;SDS011;3708;42.632;23.378;2023-02-15T14:15:26;26.20;;;16.87;;
7334;SDS011;3708;42.632;23.378;2023-02-15T14:18:00;22.00;;;16.73;;
7334;SDS011;3708;42.632;23.378;2023-02-15T14:20:41;27.17;;;17.50;;
7334;SDS011;3708;42.632;23.378;2023-02-15T14:23:19;30.63;;;16.83;;
7334;SDS011;3708;42.632;23.378;2023-02-15T14:25:57;30.00;;;17.47;;
7334;SDS011;3708;42.632;23.378;2023-02-15T14:28:31;25.13;;;16.30;;
7334;SDS011;3708;42.632;23.378;2023-02-15T14:31:03;24.90;;;17.23;;
7334;SDS011;3708;42.632;23.378;2023-02-15T14:33:33;25.27;;;17.30;;
7334;SDS011;3708;42.632;23.378;2023-02-15T14:36:03;23.67;;;16.13;;
7334;SDS011;3708;42.632;23.378;2023-02-15T14:38:38;27.27;;;18.07;;
7334;SDS011;3708;42.632;23.378;2023-02-15T14:41:17;23.43;;;17.27;;
7334;SDS011;3708;42.632;23.378;2023-02-15T14:43:53;26.43;;;18.00;;
7334;SDS011;3708;42.632;23.378;2023-02-15T14:46:34;25.83;;;16.53;;
7334;SDS011;3708;42.632;23.378;2023-02-15T14:49:06;27.03;;;16.90;;
7334;SDS011;3708;42.632;23.378;2023-02-15T14:51:57;27.93;;;17.93;;
7334;SDS011;3708;42.632;23.378;2023-02-15T14:57:26;26.10;;;18.23;;
7334;SDS011;3708;42.632;23.378;2023-02-15T14:59:58;27.67;;;17.07;;
7334;SDS011;3708;42.632;23.378;2023-02-15T15:02:40;29.20;;;18.37;;
7334;SDS011;3708;42.632;23.378;2023-02-15T15:05:11;25.50;;;17.90;;
7334;SDS011;3708;42.632;23.378;2023-02-15T15:07:45;28.77;;;18.97;;
7334;SDS011;3708;42.632;23.378;2023-02-15T15:10:36;30.33;;;17.13;;
7334;SDS011;3708;42.632;23.378;2023-02-15T15:22:38;26.97;;;18.57;;
7334;SDS011;3708;42.632;23.378;2023-02-15T15:25:09;28.93;;;18.13;;
7334;SDS011;3708;42.632;23.378;2023-02-15T15:27:46;30.43;;;20.13;;
7334;SDS011;3708;42.632;23.378;2023-02-15T15:36:25;29.97;;;20.27;;
7334;SDS011;3708;42.632;23.378;2023-02-15T15:39:16;32.73;;;19.77;;
7334;SDS011;3708;42.632;23.378;2023-02-15T15:41:56;28.30;;;18.10;;